Glen Head, NY (11545)

12:46 AM EDT on June 24, 2017 (GMT -0400)
Muttontown, NY | | Change Station

Elev 154 ft 40.83 °N, 73.56 °W | Updated 59 seconds ago

Mostly Cloudy
Mostly Cloudy
74.7 °F
Feels Like 74 °F
N
3.0
Wind Variable Wind from South
Gusts 3.0 mph

Today
High -- | Low -- °F
--% Chance of Precip.
Yesterday
High -- | Low -- °F
Precip. -- in
Pressure 29.62 in
Visibility 10.0 miles
Clouds Scattered Clouds 3300 ft
Scattered Clouds 15000 ft
Mostly Cloudy 25000 ft
Heat Index 74 °F
Dew Point 72 °F
Humidity 90%
Rainfall 0.00 in
Snow Depth Not available.
5:23 AM 8:30 PM
New Moon, 0% visible
METAR KLGA 240351Z 22009KT 10SM SCT033 SCT150 BKN250 28/23 A2962 RMK AO2 SLP029 T02780233
Pressure 29.62 in
Visibility 10.0 miles
Clouds Scattered Clouds 3300 ft
Scattered Clouds 15000 ft
Mostly Cloudy 25000 ft
Heat Index 74 °F
Dew Point 72 °F
Humidity 90%
Rainfall 0.00 in
Snow Depth Not available.
5:23 AM 8:30 PM
New Moon, 0% visible
METAR KLGA 240351Z 22009KT 10SM SCT033 SCT150 BKN250 28/23 A2962 RMK AO2 SLP029 T02780233

Get Severe Weather Alerts

Thanks for signing up!

Be on the lookout for a verification email in your inbox.

You'll start receiving the daily forecast at 6 AM.

×

10-Day Weather Forecast

Almanac

Astronomy

Jun. 24, 2017 Rise Set
Actual Time
Civil Twilight
Nautical Twilight
Astronomical Twilight
Moon
Length of Visible Light
Length of Day
Tomorrow will be .
, % of the Moon is Illuminated

Today's Extremes

State Highs State Lows

Community

WunderPhotos

Category 6

Welcome to Category 6. This is the collective home for Weather Underground's featured writeups by Dr. Jeff Masters (right), Bob Henson (left), Chris Burt, and other regular contributors.

Nearby

Air Quality

  Air Quality AQ Index Pollutant
Not available.

Snow Depth

Station Depth Elevation

Earthquake Activity

City Distance Mag. Time & Date
Minimum magnitude displayed is 2.5.

Coastal Water Temperatures

Place Temperature

Stations

Nearby Weather Stations

Station Location Temp. Windchill Dew Point Humidity Wind Precip. Elev Updated Type
                   

Watches & Warnings

There are currently no watches in effect.